sensor_id;sensor_type;location;lat;lon;timestamp;pressure;altitude;pressure_sealevel;temperature;humidity
29215;BME280;16252;49.816;7.964;2022-10-31T00:00:47;100486.91;;;13.84;67.95
29215;BME280;16252;49.816;7.964;2022-10-31T00:03:12;100491.19;;;13.86;67.96
29215;BME280;16252;49.816;7.964;2022-10-31T00:05:43;100504.63;;;13.98;67.79
29215;BME280;16252;49.816;7.964;2022-10-31T00:08:09;100512.22;;;13.93;67.92
29215;BME280;16252;49.816;7.964;2022-10-31T00:10:39;100516.25;;;13.98;68.07
29215;BME280;16252;49.816;7.964;2022-10-31T00:13:05;100514.91;;;13.93;67.75
29215;BME280;16252;49.816;7.964;2022-10-31T00:15:33;100530.28;;;14.02;68.32
29215;BME280;16252;49.816;7.964;2022-10-31T00:17:58;100500.50;;;13.82;68.19
29215;BME280;16252;49.816;7.964;2022-10-31T00:20:23;100496.22;;;13.80;68.37
29215;BME280;16252;49.816;7.964;2022-10-31T00:22:49;100500.50;;;13.82;68.27
29215;BME280;16252;49.816;7.964;2022-10-31T00:25:14;100509.53;;;13.93;68.50
29215;BME280;16252;49.816;7.964;2022-10-31T00:27:39;100533.97;;;14.01;68.29
29215;BME280;16252;49.816;7.964;2022-10-31T00:30:05;100541.03;;;14.02;68.41
29215;BME280;16252;49.816;7.964;2022-10-31T00:32:30;100521.72;;;13.97;68.32
29215;BME280;16252;49.816;7.964;2022-10-31T00:34:56;100510.50;;;13.92;68.44
29215;BME280;16252;49.816;7.964;2022-10-31T00:37:21;100515.63;;;13.95;68.40
29215;BME280;16252;49.816;7.964;2022-10-31T00:39:46;100520.78;;;13.98;68.04
29215;BME280;16252;49.816;7.964;2022-10-31T00:42:14;100536.28;;;14.05;67.94
29215;BME280;16252;49.816;7.964;2022-10-31T00:44:39;100516.13;;;13.88;67.47
29215;BME280;16252;49.816;7.964;2022-10-31T00:47:04;100527.13;;;13.97;67.45
29215;BME280;16252;49.816;7.964;2022-10-31T00:49:29;100513.97;;;13.82;67.51
29215;BME280;16252;49.816;7.964;2022-10-31T00:51:55;100489.88;;;13.70;67.88
29215;BME280;16252;49.816;7.964;2022-10-31T00:54:20;100528.13;;;13.84;67.97
29215;BME280;16252;49.816;7.964;2022-10-31T00:56:45;100522.88;;;13.83;68.14
29215;BME280;16252;49.816;7.964;2022-10-31T00:59:11;100465.50;;;13.50;68.03
29215;BME280;16252;49.816;7.964;2022-10-31T01:01:36;100380.38;;;12.94;68.09
29215;BME280;16252;49.816;7.964;2022-10-31T01:04:02;100382.34;;;12.92;68.25
29215;BME280;16252;49.816;7.964;2022-10-31T01:06:30;100376.72;;;12.95;68.01
29215;BME280;16252;49.816;7.964;2022-10-31T01:08:56;100509.91;;;13.77;68.18
29215;BME280;16252;49.816;7.964;2022-10-31T01:11:22;100523.63;;;13.85;68.41
29215;BME280;16252;49.816;7.964;2022-10-31T01:13:51;100523.63;;;13.85;68.25
29215;BME280;16252;49.816;7.964;2022-10-31T01:16:18;100449.63;;;13.36;68.31
29215;BME280;16252;49.816;7.964;2022-10-31T01:18:44;100422.00;;;13.22;68.19
29215;BME280;16252;49.816;7.964;2022-10-31T01:21:16;100438.38;;;13.31;68.20
29215;BME280;16252;49.816;7.964;2022-10-31T01:23:42;100498.56;;;13.62;68.26
29215;BME280;16252;49.816;7.964;2022-10-31T01:26:16;100524.84;;;13.81;68.04
29215;BME280;16252;49.816;7.964;2022-10-31T01:28:47;100523.97;;;13.80;68.33
29215;BME280;16252;49.816;7.964;2022-10-31T01:31:13;100505.66;;;13.63;68.32
29215;BME280;16252;49.816;7.964;2022-10-31T01:33:38;100473.81;;;13.47;68.38
29215;BME280;16252;49.816;7.964;2022-10-31T01:36:18;100469.63;;;13.54;68.44
29215;BME280;16252;49.816;7.964;2022-10-31T01:38:44;100521.53;;;13.77;68.38
29215;BME280;16252;49.816;7.964;2022-10-31T01:41:11;100509.22;;;13.63;68.55
29215;BME280;16252;49.816;7.964;2022-10-31T01:43:44;100519.56;;;13.79;68.43
29215;BME280;16252;49.816;7.964;2022-10-31T01:46:10;100498.34;;;13.54;68.41
29215;BME280;16252;49.816;7.964;2022-10-31T01:48:35;100512.75;;;13.64;68.56
29215;BME280;16252;49.816;7.964;2022-10-31T01:51:01;100503.13;;;13.50;68.24
29215;BME280;16252;49.816;7.964;2022-10-31T01:53:29;100503.34;;;13.58;68.30
29215;BME280;16252;49.816;7.964;2022-10-31T01:55:55;100516.28;;;13.64;68.70
29215;BME280;16252;49.816;7.964;2022-10-31T01:58:25;100526.19;;;13.75;68.28
29215;BME280;16252;49.816;7.964;2022-10-31T02:00:55;100532.69;;;13.73;68.55
29215;BME280;16252;49.816;7.964;2022-10-31T02:03:22;100530.09;;;13.71;68.72
29215;BME280;16252;49.816;7.964;2022-10-31T02:05:49;100529.38;;;13.69;68.52
29215;BME280;16252;49.816;7.964;2022-10-31T02:08:19;100521.03;;;13.72;68.78
29215;BME280;16252;49.816;7.964;2022-10-31T02:10:45;100506.03;;;13.58;68.90
29215;BME280;16252;49.816;7.964;2022-10-31T02:13:11;100476.59;;;13.46;68.80
29215;BME280;16252;49.816;7.964;2022-10-31T02:15:39;100437.28;;;13.22;68.99
29215;BME280;16252;49.816;7.964;2022-10-31T02:18:05;100494.19;;;13.61;68.90
29215;BME280;16252;49.816;7.964;2022-10-31T02:26:09;100504.53;;;13.88;68.36
29215;BME280;16252;49.816;7.964;2022-10-31T02:29:12;100511.59;;;13.89;68.31
29215;BME280;16252;49.816;7.964;2022-10-31T02:32:25;100503.53;;;13.89;68.30
29215;BME280;16252;49.816;7.964;2022-10-31T02:43:53;100502.81;;;13.87;68.41
29215;BME280;16252;49.816;7.964;2022-10-31T02:51:52;100451.19;;;13.50;68.34
29215;BME280;16252;49.816;7.964;2022-10-31T02:54:27;100489.75;;;13.71;68.27
29215;BME280;16252;49.816;7.964;2022-10-31T02:57:02;100465.72;;;13.58;68.28
29215;BME280;16252;49.816;7.964;2022-10-31T02:59:30;100476.22;;;13.61;68.53
29215;BME280;16252;49.816;7.964;2022-10-31T03:02:11;100490.75;;;13.70;68.46
29215;BME280;16252;49.816;7.964;2022-10-31T03:05:03;100484.50;;;13.70;68.23
29215;BME280;16252;49.816;7.964;2022-10-31T03:07:57;100487.19;;;13.70;68.19
29215;BME280;16252;49.816;7.964;2022-10-31T03:10:44;100483.63;;;13.80;67.79
29215;BME280;16252;49.816;7.964;2022-10-31T03:15:42;100471.59;;;13.52;68.40
29215;BME280;16252;49.816;7.964;2022-10-31T03:20:53;100444.84;;;13.28;68.37
29215;BME280;16252;49.816;7.964;2022-10-31T03:23:22;100475.13;;;13.41;68.45
29215;BME280;16252;49.816;7.964;2022-10-31T03:25:50;100475.63;;;13.47;68.22
29215;BME280;16252;49.816;7.964;2022-10-31T03:28:23;100476.00;;;13.42;68.19
29215;BME280;16252;49.816;7.964;2022-10-31T03:30:52;100477.97;;;13.40;68.24
29215;BME280;16252;49.816;7.964;2022-10-31T03:33:29;100462.31;;;13.34;68.28
29215;BME280;16252;49.816;7.964;2022-10-31T03:35:58;100451.56;;;13.22;68.22
29215;BME280;16252;49.816;7.964;2022-10-31T03:38:26;100457.19;;;13.19;68.40
29215;BME280;16252;49.816;7.964;2022-10-31T03:40:54;100483.22;;;13.30;68.21
29215;BME280;16252;49.816;7.964;2022-10-31T03:43:24;100453.03;;;13.15;68.26
29215;BME280;16252;49.816;7.964;2022-10-31T03:45:51;100418.25;;;12.91;68.35
29215;BME280;16252;49.816;7.964;2022-10-31T03:48:18;100461.81;;;13.17;68.46
29215;BME280;16252;49.816;7.964;2022-10-31T03:50:50;100477.94;;;13.29;68.11
29215;BME280;16252;49.816;7.964;2022-10-31T03:53:30;100476.13;;;13.29;68.03
29215;BME280;16252;49.816;7.964;2022-10-31T03:56:02;100461.94;;;13.16;67.92
29215;BME280;16252;49.816;7.964;2022-10-31T03:58:35;100453.28;;;13.12;68.10
29215;BME280;16252;49.816;7.964;2022-10-31T04:01:05;100487.34;;;13.23;68.28
29215;BME280;16252;49.816;7.964;2022-10-31T04:03:36;100485.28;;;13.27;68.38
29215;BME280;16252;49.816;7.964;2022-10-31T04:06:06;100444.84;;;12.94;68.34
29215;BME280;16252;49.816;7.964;2022-10-31T04:08:39;100477.31;;;13.14;68.47
29215;BME280;16252;49.816;7.964;2022-10-31T04:11:07;100491.22;;;13.19;68.50
29215;BME280;16252;49.816;7.964;2022-10-31T04:13:37;100477.81;;;13.08;68.70
29215;BME280;16252;49.816;7.964;2022-10-31T04:16:04;100453.25;;;12.90;68.39
29215;BME280;16252;49.816;7.964;2022-10-31T04:18:30;100477.19;;;12.93;68.63
29215;BME280;16252;49.816;7.964;2022-10-31T04:21:04;100435.91;;;12.83;68.45
29215;BME280;16252;49.816;7.964;2022-10-31T04:23:30;100474.88;;;12.99;68.47
29215;BME280;16252;49.816;7.964;2022-10-31T04:25:56;100443.97;;;12.83;68.42
29215;BME280;16252;49.816;7.964;2022-10-31T04:28:22;100486.72;;;13.08;68.54
29215;BME280;16252;49.816;7.964;2022-10-31T04:30:47;100434.69;;;12.75;68.76
29215;BME280;16252;49.816;7.964;2022-10-31T04:33:13;100435.03;;;12.71;68.59
29215;BME280;16252;49.816;7.964;2022-10-31T04:35:38;100457.16;;;12.86;68.97
29215;BME280;16252;49.816;7.964;2022-10-31T04:38:03;100410.63;;;12.63;68.85
29215;BME280;16252;49.816;7.964;2022-10-31T04:40:29;100456.06;;;12.88;68.78
29215;BME280;16252;49.816;7.964;2022-10-31T04:42:54;100440.78;;;12.77;68.88
29215;BME280;16252;49.816;7.964;2022-10-31T04:45:20;100476.94;;;12.96;68.94
29215;BME280;16252;49.816;7.964;2022-10-31T04:47:45;100424.94;;;12.74;69.08
29215;BME280;16252;49.816;7.964;2022-10-31T04:50:10;100468.78;;;12.97;69.01
29215;BME280;16252;49.816;7.964;2022-10-31T04:52:42;100479.28;;;13.12;69.22
29215;BME280;16252;49.816;7.964;2022-10-31T04:55:09;100478.31;;;13.01;69.12
29215;BME280;16252;49.816;7.964;2022-10-31T04:57:45;100468.41;;;13.02;69.17
29215;BME280;16252;49.816;7.964;2022-10-31T05:00:12;100464.13;;;12.99;69.10
29215;BME280;16252;49.816;7.964;2022-10-31T05:02:54;100430.91;;;12.78;69.15
29215;BME280;16252;49.816;7.964;2022-10-31T05:05:25;100488.31;;;13.11;68.97
29215;BME280;16252;49.816;7.964;2022-10-31T05:07:51;100451.78;;;12.86;68.84
29215;BME280;16252;49.816;7.964;2022-10-31T05:10:23;100430.91;;;12.78;68.88
29215;BME280;16252;49.816;7.964;2022-10-31T05:12:51;100466.31;;;13.06;69.11
29215;BME280;16252;49.816;7.964;2022-10-31T05:15:20;100467.06;;;13.08;69.05
29215;BME280;16252;49.816;7.964;2022-10-31T05:17:46;100450.06;;;12.96;69.00
29215;BME280;16252;49.816;7.964;2022-10-31T05:20:13;100464.97;;;13.00;68.71
29215;BME280;16252;49.816;7.964;2022-10-31T05:22:42;100480.25;;;13.11;68.41
29215;BME280;16252;49.816;7.964;2022-10-31T05:25:08;100449.09;;;12.86;68.38
29215;BME280;16252;49.816;7.964;2022-10-31T05:27:33;100447.50;;;12.83;68.41
29215;BME280;16252;49.816;7.964;2022-10-31T05:29:59;100350.81;;;12.16;68.47
29215;BME280;16252;49.816;7.964;2022-10-31T05:32:24;100459.97;;;12.84;68.59
29215;BME280;16252;49.816;7.964;2022-10-31T05:34:49;100459.34;;;12.80;68.78
29215;BME280;16252;49.816;7.964;2022-10-31T05:37:14;100419.91;;;12.58;69.06
29215;BME280;16252;49.816;7.964;2022-10-31T05:39:40;100448.97;;;12.76;69.17
29215;BME280;16252;49.816;7.964;2022-10-31T05:42:05;100470.72;;;12.84;69.18
29215;BME280;16252;49.816;7.964;2022-10-31T05:44:30;100446.66;;;12.83;69.07
29215;BME280;16252;49.816;7.964;2022-10-31T05:46:56;100417.47;;;12.67;69.17
29215;BME280;16252;49.816;7.964;2022-10-31T05:49:21;100453.25;;;12.90;69.34
29215;BME280;16252;49.816;7.964;2022-10-31T05:51:47;100423.09;;;12.75;69.28
29215;BME280;16252;49.816;7.964;2022-10-31T05:54:13;100452.53;;;12.88;69.14
29215;BME280;16252;49.816;7.964;2022-10-31T05:56:38;100453.25;;;12.90;69.31
29215;BME280;16252;49.816;7.964;2022-10-31T05:59:03;100322.25;;;12.14;68.78
29215;BME280;16252;49.816;7.964;2022-10-31T06:01:28;100431.53;;;12.82;68.82
29215;BME280;16252;49.816;7.964;2022-10-31T06:03:54;100418.72;;;12.74;68.86
29215;BME280;16252;49.816;7.964;2022-10-31T06:06:19;100387.91;;;12.55;68.76
29215;BME280;16252;49.816;7.964;2022-10-31T06:08:44;100459.38;;;12.92;68.68
29215;BME280;16252;49.816;7.964;2022-10-31T06:11:09;100448.13;;;12.87;68.94
29215;BME280;16252;49.816;7.964;2022-10-31T06:13:35;100449.84;;;12.88;68.91
29215;BME280;16252;49.816;7.964;2022-10-31T06:16:00;100442.25;;;12.93;68.90
29215;BME280;16252;49.816;7.964;2022-10-31T06:18:25;100453.25;;;12.90;69.11
29215;BME280;16252;49.816;7.964;2022-10-31T06:20:50;100375.75;;;12.51;68.97
29215;BME280;16252;49.816;7.964;2022-10-31T06:23:16;100464.00;;;13.01;68.96
29215;BME280;16252;49.816;7.964;2022-10-31T06:25:41;100444.84;;;12.94;68.95
29215;BME280;16252;49.816;7.964;2022-10-31T06:28:06;100432.75;;;12.89;69.14
29215;BME280;16252;49.816;7.964;2022-10-31T06:30:32;100407.97;;;12.74;69.05
29215;BME280;16252;49.816;7.964;2022-10-31T06:33:04;100443.50;;;13.00;69.16
29215;BME280;16252;49.816;7.964;2022-10-31T06:35:29;100465.97;;;13.10;69.13
29215;BME280;16252;49.816;7.964;2022-10-31T06:37:55;100440.06;;;12.98;69.08
29215;BME280;16252;49.816;7.964;2022-10-31T06:40:20;100411.00;;;12.80;69.09
29215;BME280;16252;49.816;7.964;2022-10-31T06:42:46;100409.56;;;12.76;69.23
29215;BME280;16252;49.816;7.964;2022-10-31T06:45:11;100454.59;;;12.95;69.16
29215;BME280;16252;49.816;7.964;2022-10-31T06:47:36;100446.06;;;13.01;69.20
29215;BME280;16252;49.816;7.964;2022-10-31T06:50:02;100433.25;;;12.94;69.34
29215;BME280;16252;49.816;7.964;2022-10-31T06:52:27;100454.38;;;13.10;69.35
29215;BME280;16252;49.816;7.964;2022-10-31T06:54:52;100361.97;;;12.56;69.46
29215;BME280;16252;49.816;7.964;2022-10-31T06:57:17;100482.69;;;13.25;69.48
29215;BME280;16252;49.816;7.964;2022-10-31T06:59:43;100478.09;;;13.27;69.25
29215;BME280;16252;49.816;7.964;2022-10-31T07:02:10;100480.53;;;13.30;69.52
29215;BME280;16252;49.816;7.964;2022-10-31T07:04:35;100482.13;;;13.33;69.50
29215;BME280;16252;49.816;7.964;2022-10-31T07:07:01;100464.75;;;13.26;69.61
29215;BME280;16252;49.816;7.964;2022-10-31T07:09:26;100418.72;;;12.96;69.52
29215;BME280;16252;49.816;7.964;2022-10-31T07:14:19;100488.47;;;13.43;69.64
29215;BME280;16252;49.816;7.964;2022-10-31T07:16:51;100487.00;;;13.50;69.83
29215;BME280;16252;49.816;7.964;2022-10-31T07:19:17;100423.97;;;13.09;69.95
29215;BME280;16252;49.816;7.964;2022-10-31T07:21:45;100459.00;;;13.41;69.74
29215;BME280;16252;49.816;7.964;2022-10-31T07:24:11;100459.25;;;13.38;69.69
29215;BME280;16252;49.816;7.964;2022-10-31T07:26:36;100486.13;;;13.61;69.83
29215;BME280;16252;49.816;7.964;2022-10-31T07:29:01;100468.66;;;13.55;70.06
29215;BME280;16252;49.816;7.964;2022-10-31T07:31:26;100474.25;;;13.63;70.04
29215;BME280;16252;49.816;7.964;2022-10-31T07:33:52;100468.88;;;13.63;69.99
29215;BME280;16252;49.816;7.964;2022-10-31T07:36:17;100474.84;;;13.67;70.05
29215;BME280;16252;49.816;7.964;2022-10-31T07:38:42;100457.59;;;13.70;70.07
29215;BME280;16252;49.816;7.964;2022-10-31T07:41:08;100456.50;;;13.72;70.18
29215;BME280;16252;49.816;7.964;2022-10-31T07:43:33;100477.00;;;13.96;70.31
29215;BME280;16252;49.816;7.964;2022-10-31T07:45:59;100456.38;;;13.85;70.33
29215;BME280;16252;49.816;7.964;2022-10-31T07:48:24;100479.50;;;14.08;70.14
29215;BME280;16252;49.816;7.964;2022-10-31T07:50:49;100479.38;;;14.10;70.48
29215;BME280;16252;49.816;7.964;2022-10-31T07:53:15;100473.28;;;14.08;70.20
29215;BME280;16252;49.816;7.964;2022-10-31T07:55:41;100467.50;;;14.13;70.35
29215;BME280;16252;49.816;7.964;2022-10-31T07:58:09;100493.34;;;14.36;70.48
29215;BME280;16252;49.816;7.964;2022-10-31T08:00:36;100495.41;;;14.44;70.47
29215;BME280;16252;49.816;7.964;2022-10-31T08:03:04;100495.09;;;14.58;70.28
29215;BME280;16252;49.816;7.964;2022-10-31T08:05:31;100452.59;;;14.41;70.49
29215;BME280;16252;49.816;7.964;2022-10-31T08:07:57;100486.97;;;14.69;70.25
29215;BME280;16252;49.816;7.964;2022-10-31T08:10:23;100472.44;;;14.61;70.12
29215;BME280;16252;49.816;7.964;2022-10-31T08:13:03;100497.88;;;14.89;69.77
29215;BME280;16252;49.816;7.964;2022-10-31T08:15:29;100472.09;;;14.75;70.05
29215;BME280;16252;49.816;7.964;2022-10-31T08:17:55;100479.25;;;14.86;69.91
29215;BME280;16252;49.816;7.964;2022-10-31T08:20:21;100491.94;;;14.95;69.87
29215;BME280;16252;49.816;7.964;2022-10-31T08:23:00;100480.88;;;14.98;69.74
29215;BME280;16252;49.816;7.964;2022-10-31T08:25:28;100488.28;;;15.06;69.95
29215;BME280;16252;49.816;7.964;2022-10-31T08:27:54;100475.94;;;15.03;69.99
29215;BME280;16252;49.816;7.964;2022-10-31T08:30:21;100487.63;;;15.13;70.20
29215;BME280;16252;49.816;7.964;2022-10-31T08:32:47;100490.63;;;15.20;70.32
29215;BME280;16252;49.816;7.964;2022-10-31T08:35:21;100471.91;;;15.18;70.56
29215;BME280;16252;49.816;7.964;2022-10-31T08:37:52;100490.13;;;15.36;70.45
29215;BME280;16252;49.816;7.964;2022-10-31T08:40:17;100474.34;;;15.31;70.59
29215;BME280;16252;49.816;7.964;2022-10-31T08:42:42;100463.72;;;15.30;70.54
29215;BME280;16252;49.816;7.964;2022-10-31T08:45:08;100469.72;;;15.43;70.55
29215;BME280;16252;49.816;7.964;2022-10-31T08:47:33;100478.97;;;15.50;70.34
29215;BME280;16252;49.816;7.964;2022-10-31T08:49:58;100464.91;;;15.47;70.29
29215;BME280;16252;49.816;7.964;2022-10-31T08:52:24;100484.84;;;15.65;70.23
29215;BME280;16252;49.816;7.964;2022-10-31T08:54:50;100482.63;;;15.70;70.44
29215;BME280;16252;49.816;7.964;2022-10-31T08:57:15;100470.09;;;15.69;70.13
29215;BME280;16252;49.816;7.964;2022-10-31T08:59:40;100461.59;;;15.74;70.39
29215;BME280;16252;49.816;7.964;2022-10-31T09:02:07;100472.97;;;15.87;70.37
29215;BME280;16252;49.816;7.964;2022-10-31T09:04:32;100434.91;;;15.71;70.24
29215;BME280;16252;49.816;7.964;2022-10-31T09:06:57;100458.50;;;15.88;70.21
29215;BME280;16252;49.816;7.964;2022-10-31T09:09:23;100421.41;;;15.71;70.43
29215;BME280;16252;49.816;7.964;2022-10-31T09:11:48;100426.41;;;15.85;70.53
29215;BME280;16252;49.816;7.964;2022-10-31T09:14:14;100446.72;;;15.99;70.39
29215;BME280;16252;49.816;7.964;2022-10-31T09:16:39;100437.50;;;16.01;70.17
29215;BME280;16252;49.816;7.964;2022-10-31T09:19:04;100454.53;;;16.12;70.01
29215;BME280;16252;49.816;7.964;2022-10-31T09:21:29;100421.44;;;16.00;69.64
29215;BME280;16252;49.816;7.964;2022-10-31T09:23:55;100432.81;;;16.13;69.86
29215;BME280;16252;49.816;7.964;2022-10-31T09:26:20;100404.69;;;16.06;69.50
29215;BME280;16252;49.816;7.964;2022-10-31T09:28:46;100446.16;;;16.34;69.40
29215;BME280;16252;49.816;7.964;2022-10-31T09:31:11;100387.22;;;16.00;69.38
29215;BME280;16252;49.816;7.964;2022-10-31T09:33:37;100402.41;;;16.21;69.67
29215;BME280;16252;49.816;7.964;2022-10-31T09:36:02;100430.66;;;16.46;69.83
29215;BME280;16252;49.816;7.964;2022-10-31T09:38:27;100428.50;;;16.50;69.03
29215;BME280;16252;49.816;7.964;2022-10-31T09:41:18;100440.97;;;16.70;68.95
29215;BME280;16252;49.816;7.964;2022-10-31T09:43:57;100442.38;;;16.74;68.85
29215;BME280;16252;49.816;7.964;2022-10-31T09:46:46;100431.59;;;16.84;69.06
29215;BME280;16252;49.816;7.964;2022-10-31T09:51:43;100407.97;;;16.76;68.71
29215;BME280;16252;49.816;7.964;2022-10-31T09:54:15;100413.94;;;16.89;69.16
29215;BME280;16252;49.816;7.964;2022-10-31T09:56:42;100397.59;;;16.81;68.98
29215;BME280;16252;49.816;7.964;2022-10-31T09:59:19;100430.47;;;17.14;68.83
29215;BME280;16252;49.816;7.964;2022-10-31T10:01:50;100413.59;;;17.02;69.06
29215;BME280;16252;49.816;7.964;2022-10-31T10:04:32;100431.44;;;17.23;68.92
29215;BME280;16252;49.816;7.964;2022-10-31T10:07:03;100400.84;;;17.22;68.86
29215;BME280;16252;49.816;7.964;2022-10-31T10:09:29;100404.94;;;17.26;68.63
29215;BME280;16252;49.816;7.964;2022-10-31T10:14:33;100425.16;;;17.50;68.68
29215;BME280;16252;49.816;7.964;2022-10-31T10:17:15;100415.72;;;17.54;68.43
29215;BME280;16252;49.816;7.964;2022-10-31T10:19:52;100388.72;;;17.44;68.37
29215;BME280;16252;49.816;7.964;2022-10-31T10:22:38;100421.47;;;17.69;68.07
29215;BME280;16252;49.816;7.964;2022-10-31T10:25:21;100431.66;;;17.85;68.16
29215;BME280;16252;49.816;7.964;2022-10-31T10:30:35;100381.22;;;17.84;68.38
29215;BME280;16252;49.816;7.964;2022-10-31T10:33:09;100412.94;;;18.09;68.72
29215;BME280;16252;49.816;7.964;2022-10-31T10:35:49;100359.88;;;17.98;68.94
29215;BME280;16252;49.816;7.964;2022-10-31T10:41:16;100399.00;;;18.48;67.98
29215;BME280;16252;49.816;7.964;2022-10-31T10:43:42;100408.09;;;18.65;68.55
29215;BME280;16252;49.816;7.964;2022-10-31T10:49:03;100390.19;;;18.98;67.13
29215;BME280;16252;49.816;7.964;2022-10-31T10:51:37;100399.28;;;19.15;67.03
29215;BME280;16252;49.816;7.964;2022-10-31T10:54:17;100397.13;;;19.27;66.80
29215;BME280;16252;49.816;7.964;2022-10-31T10:59:34;100353.50;;;19.12;66.44
29215;BME280;16252;49.816;7.964;2022-10-31T11:02:00;100387.97;;;19.28;66.61
29215;BME280;16252;49.816;7.964;2022-10-31T11:04:34;100382.88;;;19.33;66.09
29215;BME280;16252;49.816;7.964;2022-10-31T11:07:08;100360.81;;;19.20;66.07
29215;BME280;16252;49.816;7.964;2022-10-31T11:09:34;100382.53;;;19.28;66.35
29215;BME280;16252;49.816;7.964;2022-10-31T11:12:07;100370.63;;;19.21;66.11
29215;BME280;16252;49.816;7.964;2022-10-31T11:14:43;100363.84;;;19.17;66.03
29215;BME280;16252;49.816;7.964;2022-10-31T11:17:18;100377.09;;;19.20;66.01
29215;BME280;16252;49.816;7.964;2022-10-31T11:19:44;100362.81;;;19.10;66.29
29215;BME280;16252;49.816;7.964;2022-10-31T11:22:17;100346.53;;;19.10;65.98
29215;BME280;16252;49.816;7.964;2022-10-31T11:24:43;100384.03;;;19.22;66.26
29215;BME280;16252;49.816;7.964;2022-10-31T11:27:19;100368.47;;;19.24;66.31
29215;BME280;16252;49.816;7.964;2022-10-31T11:29:45;100367.06;;;19.12;66.36
29215;BME280;16252;49.816;7.964;2022-10-31T11:32:21;100361.31;;;19.23;66.33
29215;BME280;16252;49.816;7.964;2022-10-31T11:34:51;100323.78;;;19.02;66.20
29215;BME280;16252;49.816;7.964;2022-10-31T11:37:24;100345.53;;;19.19;66.39
29215;BME280;16252;49.816;7.964;2022-10-31T11:39:55;100311.22;;;19.01;66.78
29215;BME280;16252;49.816;7.964;2022-10-31T11:42:23;100333.69;;;19.20;66.78
29215;BME280;16252;49.816;7.964;2022-10-31T11:44:51;100316.88;;;19.16;66.77
29215;BME280;16252;49.816;7.964;2022-10-31T11:47:24;100307.75;;;19.17;66.62
29215;BME280;16252;49.816;7.964;2022-10-31T11:49:51;100310.44;;;19.17;66.84
29215;BME280;16252;49.816;7.964;2022-10-31T11:52:24;100313.50;;;19.22;66.60
29215;BME280;16252;49.816;7.964;2022-10-31T11:54:55;100297.38;;;19.13;66.58
29215;BME280;16252;49.816;7.964;2022-10-31T11:57:24;100285.13;;;19.00;66.66
29215;BME280;16252;49.816;7.964;2022-10-31T11:59:58;100322.34;;;19.24;66.97
29215;BME280;16252;49.816;7.964;2022-10-31T12:02:25;100293.81;;;19.12;66.79
29215;BME280;16252;49.816;7.964;2022-10-31T12:05:01;100249.19;;;18.98;66.50
29215;BME280;16252;49.816;7.964;2022-10-31T12:07:27;100293.16;;;19.18;66.59
29215;BME280;16252;49.816;7.964;2022-10-31T12:09:52;100276.38;;;19.15;66.77
29215;BME280;16252;49.816;7.964;2022-10-31T12:17:42;100295.91;;;19.35;66.40
29215;BME280;16252;49.816;7.964;2022-10-31T12:25:55;100285.72;;;19.37;66.50
29215;BME280;16252;49.816;7.964;2022-10-31T12:28:38;100237.56;;;19.14;66.32
29215;BME280;16252;49.816;7.964;2022-10-31T12:37:09;100251.81;;;19.33;66.22
29215;BME280;16252;49.816;7.964;2022-10-31T12:47:46;100205.66;;;19.00;66.67
29215;BME280;16252;49.816;7.964;2022-10-31T12:53:04;100206.50;;;19.09;66.83
29215;BME280;16252;49.816;7.964;2022-10-31T12:55:41;100194.28;;;18.96;66.70
29215;BME280;16252;49.816;7.964;2022-10-31T12:58:17;100205.31;;;19.03;66.86
29215;BME280;16252;49.816;7.964;2022-10-31T13:00:48;100205.47;;;19.01;66.85
29215;BME280;16252;49.816;7.964;2022-10-31T13:03:30;100208.22;;;19.10;66.95
29215;BME280;16252;49.816;7.964;2022-10-31T13:06:03;100215.66;;;19.08;66.99
29215;BME280;16252;49.816;7.964;2022-10-31T13:08:37;100199.91;;;19.03;66.98
29215;BME280;16252;49.816;7.964;2022-10-31T13:11:24;100173.31;;;19.07;66.93
29215;BME280;16252;49.816;7.964;2022-10-31T13:14:06;100185.50;;;19.19;67.05
29215;BME280;16252;49.816;7.964;2022-10-31T13:16:37;100168.88;;;19.14;67.19
29215;BME280;16252;49.816;7.964;2022-10-31T13:19:10;100140.25;;;18.95;67.12
29215;BME280;16252;49.816;7.964;2022-10-31T13:21:42;100157.53;;;19.02;67.13
29215;BME280;16252;49.816;7.964;2022-10-31T13:24:17;100156.50;;;19.03;67.15
29215;BME280;16252;49.816;7.964;2022-10-31T13:26:50;100152.63;;;18.97;67.46
29215;BME280;16252;49.816;7.964;2022-10-31T13:29:24;100165.97;;;18.99;67.29
29215;BME280;16252;49.816;7.964;2022-10-31T13:31:52;100185.66;;;19.01;67.43
29215;BME280;16252;49.816;7.964;2022-10-31T13:34:45;100208.38;;;19.16;67.05
29215;BME280;16252;49.816;7.964;2022-10-31T13:37:26;100205.50;;;19.10;67.16
29215;BME280;16252;49.816;7.964;2022-10-31T13:40:11;100200.25;;;19.08;67.64
29215;BME280;16252;49.816;7.964;2022-10-31T13:43:02;100201.97;;;19.17;67.28
29215;BME280;16252;49.816;7.964;2022-10-31T13:45:31;100166.16;;;18.89;67.44
29215;BME280;16252;49.816;7.964;2022-10-31T13:50:41;100179.72;;;19.14;67.45
29215;BME280;16252;49.816;7.964;2022-10-31T13:53:19;100175.34;;;19.21;67.27
29215;BME280;16252;49.816;7.964;2022-10-31T13:55:48;100168.22;;;19.12;67.44
29215;BME280;16252;49.816;7.964;2022-10-31T13:58:22;100139.06;;;19.05;67.32
29215;BME280;16252;49.816;7.964;2022-10-31T14:01:05;100154.31;;;19.23;67.01
29215;BME280;16252;49.816;7.964;2022-10-31T14:03:37;100125.50;;;19.05;67.53
29215;BME280;16252;49.816;7.964;2022-10-31T14:06:03;100147.38;;;19.20;67.42
29215;BME280;16252;49.816;7.964;2022-10-31T14:08:33;100147.19;;;19.30;67.30
29215;BME280;16252;49.816;7.964;2022-10-31T14:10:59;100127.34;;;19.21;67.39
29215;BME280;16252;49.816;7.964;2022-10-31T14:13:31;100129.22;;;19.29;67.30
29215;BME280;16252;49.816;7.964;2022-10-31T14:16:03;100138.22;;;19.38;66.83